createdAt,value
2022-10-07T00:00:53.611Z,8.80
2022-10-07T00:03:44.711Z,8.50
2022-10-07T00:06:32.202Z,8.40
2022-10-07T00:09:19.808Z,8.30
2022-10-07T00:12:07.124Z,8.30
2022-10-07T00:14:56.275Z,8.20
2022-10-07T00:17:43.989Z,8.10
2022-10-07T00:20:31.460Z,8.10
2022-10-07T00:23:18.903Z,8.10
2022-10-07T00:26:09.199Z,8.00
2022-10-07T00:28:57.589Z,8.00
2022-10-07T00:31:44.919Z,8.00
2022-10-07T00:34:32.519Z,8.00
2022-10-07T00:37:19.748Z,8.10
2022-10-07T00:40:07.164Z,8.10
2022-10-07T00:42:55.550Z,8.00
2022-10-07T00:45:43.730Z,8.00
2022-10-07T00:48:32.836Z,8.10
2022-10-07T00:51:20.380Z,8.10
2022-10-07T00:54:10.522Z,8.00
2022-10-07T00:56:59.161Z,7.80
2022-10-07T00:59:46.402Z,7.70
2022-10-07T01:02:34.701Z,7.70
2022-10-07T01:05:22.376Z,7.70
2022-10-07T01:08:09.473Z,7.70
2022-10-07T01:11:14.905Z,7.70
2022-10-07T01:14:07.011Z,7.80
2022-10-07T01:17:15.482Z,7.60
2022-10-07T01:20:15.034Z,7.60
2022-10-07T01:23:20.085Z,7.50
2022-10-07T01:26:36.141Z,7.50
2022-10-07T01:29:41.171Z,7.60
2022-10-07T01:32:33.236Z,7.60
2022-10-07T01:35:24.747Z,7.50
2022-10-07T01:38:15.059Z,7.50
2022-10-07T01:41:08.079Z,7.40
2022-10-07T01:43:57.096Z,7.30
2022-10-07T01:46:44.567Z,7.40
2022-10-07T01:49:31.840Z,7.30
2022-10-07T01:52:40.973Z,7.30
2022-10-07T01:55:35.146Z,7.30
2022-10-07T01:58:44.526Z,7.20
2022-10-07T02:01:40.640Z,7.20
2022-10-07T02:04:43.282Z,7.10
2022-10-07T02:07:36.271Z,7.10
2022-10-07T02:10:32.067Z,7.10
2022-10-07T02:13:51.673Z,7.10
2022-10-07T02:16:50.812Z,7.00
2022-10-07T02:19:41.231Z,7.00
2022-10-07T02:22:32.037Z,7.20
2022-10-07T02:25:33.164Z,7.30
2022-10-07T02:28:23.711Z,7.40
2022-10-07T02:31:14.745Z,7.40
2022-10-07T02:34:05.124Z,7.50
2022-10-07T02:36:55.815Z,7.40
2022-10-07T02:39:44.920Z,7.50
2022-10-07T02:42:52.355Z,7.40
2022-10-07T02:46:05.844Z,7.40
2022-10-07T02:48:57.775Z,7.40
2022-10-07T02:51:48.323Z,7.30
2022-10-07T02:54:44.052Z,7.20
2022-10-07T02:57:34.298Z,7.20
2022-10-07T03:00:21.796Z,7.20
2022-10-07T03:03:09.300Z,7.10
2022-10-07T03:05:56.831Z,7.10
2022-10-07T03:08:44.576Z,7.00
2022-10-07T03:11:31.882Z,7.00
2022-10-07T03:14:19.613Z,7.00
2022-10-07T03:17:06.889Z,6.90
2022-10-07T03:19:53.930Z,6.90
2022-10-07T03:22:42.433Z,6.80
2022-10-07T03:25:29.998Z,6.90
2022-10-07T03:28:17.473Z,6.90
2022-10-07T03:31:08.104Z,6.90
2022-10-07T03:33:56.845Z,6.90
2022-10-07T03:36:44.488Z,6.90
2022-10-07T03:39:31.835Z,7.00
2022-10-07T03:42:19.464Z,7.10
2022-10-07T03:45:07.365Z,7.10
2022-10-07T03:47:54.731Z,7.20
2022-10-07T03:50:41.844Z,7.30
2022-10-07T03:53:29.672Z,7.30
2022-10-07T03:56:17.265Z,7.30
2022-10-07T03:59:05.070Z,7.40
2022-10-07T04:01:52.567Z,7.40
2022-10-07T04:04:39.732Z,7.40
2022-10-07T04:07:27.292Z,7.30
2022-10-07T04:10:16.680Z,7.20
2022-10-07T04:13:04.110Z,7.20
2022-10-07T04:15:52.123Z,7.20
2022-10-07T04:18:39.208Z,7.30
2022-10-07T04:21:26.358Z,7.30
2022-10-07T04:24:13.862Z,7.20
2022-10-07T04:27:00.931Z,7.10
2022-10-07T04:29:48.154Z,7.10
2022-10-07T04:32:35.322Z,7.00
2022-10-07T04:35:24.033Z,7.00
2022-10-07T04:38:12.688Z,7.00
2022-10-07T04:41:02.065Z,7.10
2022-10-07T04:43:57.594Z,7.10
2022-10-07T04:46:42.129Z,7.20
2022-10-07T04:49:29.651Z,7.20
2022-10-07T04:52:17.027Z,7.30
2022-10-07T04:55:04.645Z,7.40
2022-10-07T04:57:51.803Z,7.50
2022-10-07T05:00:45.252Z,7.50
2022-10-07T05:03:32.271Z,7.50
2022-10-07T05:06:19.679Z,7.60
2022-10-07T05:09:06.901Z,7.60
2022-10-07T05:11:57.455Z,7.70
2022-10-07T05:14:48.013Z,7.70
2022-10-07T05:17:35.730Z,7.70
2022-10-07T05:20:23.677Z,7.80
2022-10-07T05:23:10.817Z,7.80
2022-10-07T05:26:01.032Z,7.80
2022-10-07T05:28:49.237Z,7.80
2022-10-07T05:31:36.668Z,7.80
2022-10-07T05:34:24.461Z,7.90
2022-10-07T05:37:15.456Z,8.00
2022-10-07T05:40:03.014Z,8.00
2022-10-07T05:42:50.200Z,8.00
2022-10-07T05:45:37.527Z,8.00
2022-10-07T05:48:24.804Z,8.00
2022-10-07T05:51:14.023Z,8.00
2022-10-07T05:54:01.163Z,8.00
2022-10-07T05:56:49.535Z,8.00
2022-10-07T05:59:36.890Z,8.00
2022-10-07T06:02:24.232Z,8.00
2022-10-07T06:05:11.486Z,8.00
2022-10-07T06:07:58.770Z,8.00
2022-10-07T06:11:05.166Z,7.90
2022-10-07T06:13:55.423Z,7.90
2022-10-07T06:16:42.838Z,7.90
2022-10-07T06:19:29.830Z,8.00
2022-10-07T06:22:16.998Z,8.00
2022-10-07T06:25:04.436Z,8.10
2022-10-07T06:27:54.408Z,8.20
2022-10-07T06:30:40.690Z,8.30
2022-10-07T06:33:27.811Z,8.40
2022-10-07T06:36:15.819Z,8.40
2022-10-07T06:39:03.259Z,8.50
2022-10-07T06:41:52.500Z,8.50
2022-10-07T06:44:39.482Z,8.50
2022-10-07T06:47:27.108Z,8.60
2022-10-07T06:50:14.921Z,8.60
2022-10-07T06:53:02.204Z,8.60
2022-10-07T06:55:54.201Z,8.60
2022-10-07T06:58:43.105Z,8.70
2022-10-07T07:01:30.585Z,8.80
2022-10-07T07:04:17.681Z,8.80
2022-10-07T07:07:05.249Z,8.90
2022-10-07T07:09:52.742Z,9.00
2022-10-07T07:12:40.064Z,9.10
2022-10-07T07:15:27.825Z,9.20
2022-10-07T07:18:14.956Z,9.30
2022-10-07T07:21:07.304Z,9.40
2022-10-07T07:23:54.531Z,9.50
2022-10-07T07:26:41.889Z,9.50
2022-10-07T07:29:29.247Z,9.60
2022-10-07T07:32:17.395Z,9.80
2022-10-07T07:35:05.218Z,9.90
2022-10-07T07:37:54.192Z,10.20
2022-10-07T07:40:41.703Z,10.50
2022-10-07T07:43:29.137Z,10.60
2022-10-07T07:46:17.058Z,10.80
2022-10-07T07:49:05.397Z,10.90
2022-10-07T07:51:53.099Z,11.10
2022-10-07T07:54:41.830Z,11.20
2022-10-07T07:57:30.661Z,11.40
2022-10-07T08:00:18.918Z,11.70
2022-10-07T08:03:07.323Z,11.90
2022-10-07T08:05:54.911Z,12.00
2022-10-07T08:08:43.147Z,12.10
2022-10-07T08:11:32.843Z,12.30
2022-10-07T08:14:20.242Z,12.50
2022-10-07T08:17:07.597Z,12.70
2022-10-07T08:19:56.165Z,12.90
2022-10-07T08:22:45.096Z,13.10
2022-10-07T08:25:32.669Z,13.20
2022-10-07T08:28:40.294Z,13.40
2022-10-07T08:31:28.893Z,13.50
2022-10-07T08:34:16.764Z,13.60
2022-10-07T08:37:03.882Z,13.50
2022-10-07T08:39:51.502Z,13.60
2022-10-07T08:42:43.424Z,13.70
2022-10-07T08:45:34.163Z,14.00
2022-10-07T08:48:24.392Z,14.30
2022-10-07T08:51:23.379Z,14.50
2022-10-07T08:54:16.481Z,14.80
2022-10-07T08:57:06.978Z,15.20
2022-10-07T08:59:57.809Z,15.40
2022-10-07T09:03:05.223Z,15.70
2022-10-07T09:05:52.381Z,16.00
2022-10-07T09:08:43.434Z,16.40
2022-10-07T09:11:33.321Z,16.60
2022-10-07T09:14:26.701Z,17.00
2022-10-07T09:17:35.140Z,17.20
2022-10-07T09:20:24.277Z,17.50
2022-10-07T09:23:15.405Z,17.80
2022-10-07T09:26:02.826Z,17.90
2022-10-07T09:28:50.280Z,18.20
2022-10-07T09:31:38.891Z,18.60
2022-10-07T09:34:29.755Z,18.80
2022-10-07T09:37:26.101Z,18.70
2022-10-07T09:41:02.337Z,18.60
2022-10-07T09:44:19.616Z,18.80
2022-10-07T09:47:24.958Z,19.10
2022-10-07T09:50:38.209Z,19.30
2022-10-07T09:53:32.452Z,19.50
2022-10-07T09:56:40.886Z,19.30
2022-10-07T09:59:34.175Z,19.60
2022-10-07T10:02:25.032Z,19.60
2022-10-07T10:05:30.555Z,19.70
2022-10-07T10:08:20.886Z,20.20
2022-10-07T10:11:20.309Z,20.30
2022-10-07T10:14:30.283Z,20.20
2022-10-07T10:17:38.044Z,20.40
2022-10-07T10:20:28.683Z,20.20
2022-10-07T10:23:31.212Z,20.20
2022-10-07T10:26:41.904Z,20.40
2022-10-07T10:29:53.527Z,20.50
2022-10-07T10:32:59.627Z,20.80
2022-10-07T10:36:15.976Z,20.70
2022-10-07T10:39:06.264Z,20.80
2022-10-07T10:42:00.015Z,21.20
2022-10-07T10:44:59.873Z,21.10
2022-10-07T10:48:20.682Z,21.10
2022-10-07T10:51:29.382Z,21.50
2022-10-07T10:54:22.572Z,21.70
2022-10-07T10:57:23.300Z,22.10
2022-10-07T11:00:19.720Z,22.20
2022-10-07T11:03:16.059Z,22.30
2022-10-07T11:06:07.601Z,22.40
2022-10-07T11:08:57.235Z,22.70
2022-10-07T11:11:45.906Z,22.70
2022-10-07T11:14:35.376Z,22.40
2022-10-07T11:17:26.130Z,22.30
2022-10-07T11:20:16.903Z,22.30
2022-10-07T11:23:10.015Z,22.20
2022-10-07T11:26:15.691Z,22.20
2022-10-07T11:29:06.066Z,22.80
2022-10-07T11:32:07.625Z,22.70
2022-10-07T11:35:14.913Z,23.00
2022-10-07T11:38:14.615Z,23.50
2022-10-07T11:41:16.928Z,23.70
2022-10-07T11:44:10.452Z,23.30
2022-10-07T11:47:02.472Z,23.30
2022-10-07T11:49:58.928Z,23.30
2022-10-07T11:52:49.900Z,23.40
2022-10-07T11:55:41.029Z,23.40
2022-10-07T11:58:38.903Z,23.70
2022-10-07T12:01:32.165Z,23.80
2022-10-07T12:04:35.381Z,23.50
2022-10-07T12:07:59.435Z,23.40
2022-10-07T12:10:47.100Z,23.60
2022-10-07T12:13:40.163Z,23.20
2022-10-07T12:16:33.714Z,23.00
2022-10-07T12:19:23.892Z,22.90
2022-10-07T12:22:18.111Z,22.70
2022-10-07T12:25:34.788Z,22.60
2022-10-07T12:28:37.426Z,22.70
2022-10-07T12:31:28.672Z,22.90
2022-10-07T12:34:22.220Z,22.70
2022-10-07T12:37:38.671Z,22.40
2022-10-07T12:40:29.418Z,22.40
2022-10-07T12:43:33.663Z,22.30
2022-10-07T12:46:23.682Z,22.50
2022-10-07T12:49:20.391Z,22.60
2022-10-07T12:52:17.030Z,22.50
2022-10-07T12:55:20.033Z,22.50
2022-10-07T12:58:31.081Z,22.60
2022-10-07T13:01:21.673Z,22.30
2022-10-07T13:04:29.092Z,22.20
2022-10-07T13:07:40.110Z,22.30
2022-10-07T13:10:33.225Z,22.40
2022-10-07T13:13:36.000Z,22.20
2022-10-07T13:16:38.967Z,22.20
2022-10-07T13:19:46.683Z,22.10
2022-10-07T13:22:34.321Z,22.10
2022-10-07T13:25:21.835Z,21.90
2022-10-07T13:28:16.504Z,21.60
2022-10-07T13:31:19.128Z,21.50
2022-10-07T13:34:09.688Z,21.60
2022-10-07T13:36:57.043Z,21.80
2022-10-07T13:39:44.583Z,21.50
2022-10-07T13:42:31.872Z,21.50
2022-10-07T13:45:19.520Z,21.60
2022-10-07T13:48:07.282Z,21.60
2022-10-07T13:50:57.415Z,21.50
2022-10-07T13:53:45.404Z,21.50
2022-10-07T13:56:37.861Z,21.60
2022-10-07T13:59:25.445Z,21.70
2022-10-07T14:02:21.509Z,21.60
2022-10-07T14:05:22.096Z,21.60
2022-10-07T14:08:16.188Z,21.40
2022-10-07T14:11:09.884Z,21.50
2022-10-07T14:13:58.946Z,21.60
2022-10-07T14:16:47.125Z,21.60
2022-10-07T14:19:34.510Z,21.50
2022-10-07T14:22:31.313Z,21.50
2022-10-07T14:25:29.951Z,21.20
2022-10-07T14:28:29.473Z,20.90
2022-10-07T14:31:37.839Z,20.80
2022-10-07T14:34:43.264Z,20.90
2022-10-07T14:37:31.905Z,20.90
2022-10-07T14:40:23.271Z,20.70
2022-10-07T14:43:10.523Z,20.80
2022-10-07T14:45:58.231Z,20.60
2022-10-07T14:48:46.651Z,20.60
2022-10-07T14:51:34.253Z,20.60
2022-10-07T14:54:21.866Z,20.60
2022-10-07T14:57:09.834Z,20.50
2022-10-07T14:59:57.345Z,20.50
2022-10-07T15:02:45.082Z,20.50
2022-10-07T15:05:33.633Z,20.50
2022-10-07T15:08:21.290Z,20.50
2022-10-07T15:11:08.681Z,20.40
2022-10-07T15:13:56.177Z,20.10
2022-10-07T15:16:43.567Z,20.20
2022-10-07T15:19:30.997Z,20.20
2022-10-07T15:22:18.851Z,20.10
2022-10-07T15:25:07.972Z,20.10
2022-10-07T15:27:55.158Z,20.00
2022-10-07T15:30:43.006Z,20.00
2022-10-07T15:33:31.234Z,19.90
2022-10-07T15:36:18.612Z,19.90
2022-10-07T15:39:06.315Z,19.90
2022-10-07T15:41:53.762Z,19.80
2022-10-07T15:44:42.865Z,19.80
2022-10-07T15:47:32.010Z,19.80
2022-10-07T15:50:19.209Z,19.80
2022-10-07T15:53:06.432Z,19.80
2022-10-07T15:55:57.141Z,19.70
2022-10-07T15:58:45.782Z,19.70
2022-10-07T16:01:33.349Z,19.70
2022-10-07T16:04:21.027Z,19.60
2022-10-07T16:07:10.089Z,19.40
2022-10-07T16:09:57.655Z,19.40
2022-10-07T16:12:45.406Z,19.40
2022-10-07T16:15:33.088Z,19.30
2022-10-07T16:18:20.262Z,19.20
2022-10-07T16:21:10.121Z,19.20
2022-10-07T16:24:09.468Z,19.20
2022-10-07T16:26:57.210Z,19.20
2022-10-07T16:30:02.689Z,19.10
2022-10-07T16:32:50.208Z,18.90
2022-10-07T16:35:37.630Z,18.90
2022-10-07T16:38:25.059Z,18.90
2022-10-07T16:41:12.293Z,18.80
2022-10-07T16:44:01.477Z,18.70
2022-10-07T16:46:50.053Z,18.60
2022-10-07T16:49:36.926Z,18.30
2022-10-07T16:52:25.443Z,18.00
2022-10-07T16:55:13.420Z,17.60
2022-10-07T16:58:00.831Z,17.30
2022-10-07T17:00:48.104Z,17.10
2022-10-07T17:03:37.236Z,17.00
2022-10-07T17:06:26.250Z,16.70
2022-10-07T17:09:14.286Z,16.50
2022-10-07T17:12:01.965Z,16.30
2022-10-07T17:14:49.187Z,16.30
2022-10-07T17:17:36.657Z,16.20
2022-10-07T17:20:24.097Z,16.20
2022-10-07T17:23:11.181Z,16.10
2022-10-07T17:25:58.558Z,15.90
2022-10-07T17:28:46.614Z,15.80
2022-10-07T17:31:35.529Z,15.60
2022-10-07T17:34:23.359Z,15.50
2022-10-07T17:37:10.821Z,15.20
2022-10-07T17:39:58.747Z,15.10
2022-10-07T17:42:45.955Z,15.00
2022-10-07T17:45:35.969Z,14.90
2022-10-07T17:48:23.168Z,14.70
2022-10-07T17:51:11.292Z,14.70
2022-10-07T17:54:01.022Z,14.50
2022-10-07T17:56:48.228Z,14.40
2022-10-07T17:59:38.759Z,14.30
2022-10-07T18:02:26.823Z,14.20
2022-10-07T18:05:14.365Z,14.20
2022-10-07T18:08:02.209Z,14.20
2022-10-07T18:10:52.850Z,14.20
2022-10-07T18:13:58.481Z,14.00
2022-10-07T18:16:46.016Z,13.90
2022-10-07T18:19:33.304Z,13.90
2022-10-07T18:22:21.055Z,13.90
2022-10-07T18:25:10.337Z,13.90
2022-10-07T18:27:57.544Z,13.90
2022-10-07T18:30:44.817Z,13.80
2022-10-07T18:33:34.197Z,13.70
2022-10-07T18:36:21.833Z,13.60
2022-10-07T18:39:13.403Z,13.50
2022-10-07T18:42:00.919Z,13.40
2022-10-07T18:44:50.199Z,13.30
2022-10-07T18:47:37.785Z,13.30
2022-10-07T18:50:28.142Z,13.30
2022-10-07T18:53:14.754Z,13.30
2022-10-07T18:56:04.193Z,13.20
2022-10-07T18:58:53.656Z,13.20
2022-10-07T19:01:42.907Z,13.20
2022-10-07T19:04:30.910Z,13.30
2022-10-07T19:07:18.287Z,13.20
2022-10-07T19:10:06.030Z,13.10
2022-10-07T19:13:11.946Z,13.00
2022-10-07T19:16:04.859Z,13.00
2022-10-07T19:18:54.815Z,13.00
2022-10-07T19:21:43.205Z,13.00
2022-10-07T19:24:48.860Z,12.90
2022-10-07T19:27:36.605Z,12.80
2022-10-07T19:30:24.511Z,12.80
2022-10-07T19:33:12.150Z,12.70
2022-10-07T19:35:59.536Z,12.80
2022-10-07T19:38:50.547Z,12.80
2022-10-07T19:41:37.703Z,12.80
2022-10-07T19:44:25.121Z,12.80
2022-10-07T19:47:12.635Z,12.80
2022-10-07T19:50:01.427Z,12.70
2022-10-07T19:52:48.828Z,12.60
2022-10-07T19:55:36.508Z,12.70
2022-10-07T19:58:23.828Z,12.70
2022-10-07T20:01:12.312Z,12.70
2022-10-07T20:04:02.272Z,12.70
2022-10-07T20:06:49.601Z,12.70
2022-10-07T20:09:36.981Z,12.70
2022-10-07T20:12:24.379Z,12.70
2022-10-07T20:15:13.308Z,12.70
2022-10-07T20:18:02.239Z,12.80
2022-10-07T20:20:50.385Z,12.70
2022-10-07T20:23:40.312Z,12.60
2022-10-07T20:26:30.413Z,12.50
2022-10-07T20:29:21.468Z,12.50
2022-10-07T20:32:06.965Z,12.40
2022-10-07T20:34:55.018Z,12.50
2022-10-07T20:37:42.523Z,12.50
2022-10-07T20:40:48.015Z,12.40
2022-10-07T20:43:35.467Z,12.30
2022-10-07T20:46:23.506Z,12.30
2022-10-07T20:49:14.708Z,12.30
2022-10-07T20:52:04.432Z,12.40
2022-10-07T20:54:53.313Z,12.40
2022-10-07T20:57:40.702Z,12.50
2022-10-07T21:00:28.177Z,12.50
2022-10-07T21:03:16.663Z,12.40
2022-10-07T21:06:04.487Z,12.20
2022-10-07T21:08:55.402Z,12.20
2022-10-07T21:11:42.564Z,12.20
2022-10-07T21:14:30.167Z,12.30
2022-10-07T21:17:17.603Z,12.30
2022-10-07T21:20:06.135Z,12.20
2022-10-07T21:22:54.881Z,12.10
2022-10-07T21:25:42.439Z,12.00
2022-10-07T21:28:33.008Z,12.00
2022-10-07T21:31:22.748Z,11.90
2022-10-07T21:34:10.168Z,11.80
2022-10-07T21:36:57.642Z,11.70
2022-10-07T21:42:38.569Z,11.60
2022-10-07T21:45:25.680Z,11.60
2022-10-07T21:48:12.788Z,11.70
2022-10-07T21:51:05.713Z,11.50
2022-10-07T21:53:54.501Z,11.50
2022-10-07T21:56:43.589Z,11.50
2022-10-07T21:59:32.596Z,11.50
2022-10-07T22:02:20.212Z,11.40
2022-10-07T22:05:07.874Z,11.20
2022-10-07T22:08:13.396Z,11.20
2022-10-07T22:11:02.800Z,11.20
2022-10-07T22:13:56.017Z,11.10
2022-10-07T22:16:44.855Z,11.00
2022-10-07T22:19:32.359Z,11.00
2022-10-07T22:22:19.573Z,11.00
2022-10-07T22:25:08.335Z,11.00
2022-10-07T22:27:55.609Z,11.00
2022-10-07T22:30:43.176Z,11.00
2022-10-07T22:33:30.405Z,11.00
2022-10-07T22:36:17.962Z,11.00
2022-10-07T22:39:05.361Z,11.00
2022-10-07T22:41:52.447Z,10.90
2022-10-07T22:44:39.951Z,10.80
2022-10-07T22:47:27.368Z,10.80
2022-10-07T22:50:15.879Z,10.70
2022-10-07T22:53:03.165Z,10.70
2022-10-07T22:55:50.457Z,10.70
2022-10-07T22:58:38.935Z,10.70
2022-10-07T23:01:31.048Z,10.90
2022-10-07T23:04:20.159Z,10.90
2022-10-07T23:07:07.512Z,10.90
2022-10-07T23:09:55.333Z,11.00
2022-10-07T23:12:43.007Z,11.00
2022-10-07T23:15:30.429Z,11.00
2022-10-07T23:18:17.748Z,10.90
2022-10-07T23:21:09.024Z,10.90
2022-10-07T23:24:04.377Z,11.00
2022-10-07T23:26:49.346Z,11.00
2022-10-07T23:29:36.923Z,11.00
2022-10-07T23:32:24.421Z,11.00
2022-10-07T23:35:11.599Z,11.00
2022-10-07T23:38:00.466Z,11.10
2022-10-07T23:40:48.280Z,11.10
2022-10-07T23:43:36.158Z,11.10
2022-10-07T23:46:26.334Z,11.10
2022-10-07T23:49:13.755Z,11.10
2022-10-07T23:52:00.907Z,11.10
2022-10-07T23:54:49.864Z,11.30
2022-10-07T23:57:37.515Z,11.40
